Portada
METAR-TAF:

METAR-TAF

Aeroports :

Fayetteville, Arkansas, Estats Units d'Amèrica

latitud: 36-00-37N, longitud: 094-10-04W, altitud: 381 m

Observació

L'informe es va fer fa 1 hora i 7 minuts, a les 04:53 UTC
Vent calma
Temperatura 23°C
Humitat 89%
Pressió 1024 hPa
Visibilitat: 12.9 km
Cel clar

METAR: KFYV 200453Z AUTO 00000KT 8SM CLR 23/21 A3023 RMK AO2 SLP221 T02280206

Hora: 01:00 (06:00 UTC)

Pronòstic

L'informe es va fer fa 40 minuts, a les 05:20 UTC
Pronòstic vàlid del 20 a les 06 UTC al 21 a les 06 UTC
Vent kt del Nord
Visibilitat: 10 km
Núvols disperses a una alçada de 4000 ft
Núvols disperses a una alçada de 15000 ft
A partir de les 20 a les 1500 UTC
Vent 8 kt del Sud/Sud-Est
Visibilitat: 10 km
Núvols disperses a una alçada de 4000 ft
Núvols disperses a una alçada de 25000 ft

TAF: KFYV 200520Z 2006/2106 00000KT P6SM SCT040 SCT150 FM201500 15008KT P6SM SCT040 SCT250

Observacions i pronòstics meteorològics de més de 4000 aeroports (METAR i TAF).

Les estacions disponibles són els punts grocs i vermells al mapa.

Posi el ratolí al punt desitjat per veure el nom de l'estació.

Feu clic per veure les observacions i els pronòstics meteorològics.

Per canviar el mapa: feu clic els botons verds amb una creu de color negre per apropar; al botó verd amb un guió per allunyar la imatge; o en les fletxes verdes per a mapes adjacents.


METAR-TAF: